createdAt,value
2022-08-26T00:00:20.221Z,6.93
2022-08-26T00:02:48.589Z,9.25
2022-08-26T00:05:17.133Z,8.68
2022-08-26T00:07:46.362Z,6.97
2022-08-26T00:10:16.639Z,6.72
2022-08-26T00:12:45.800Z,10.80
2022-08-26T00:15:16.846Z,6.68
2022-08-26T00:17:45.017Z,8.15
2022-08-26T00:20:15.114Z,6.63
2022-08-26T00:22:43.960Z,6.05
2022-08-26T00:25:13.232Z,6.35
2022-08-26T00:27:44.089Z,8.77
2022-08-26T00:30:18.185Z,8.23
2022-08-26T00:32:51.081Z,6.10
2022-08-26T00:35:20.715Z,8.77
2022-08-26T00:37:49.096Z,7.22
2022-08-26T00:40:22.671Z,11.07
2022-08-26T00:42:52.329Z,7.82
2022-08-26T00:45:20.885Z,6.82
2022-08-26T00:47:53.718Z,8.27
2022-08-26T00:50:26.237Z,7.38
2022-08-26T00:52:56.405Z,7.72
2022-08-26T00:55:37.710Z,6.82
2022-08-26T00:58:08.914Z,8.98
2022-08-26T01:00:37.410Z,9.70
2022-08-26T01:03:07.562Z,6.35
2022-08-26T01:05:40.422Z,8.52
2022-08-26T01:08:08.692Z,10.10
2022-08-26T01:10:37.237Z,8.57
2022-08-26T01:13:11.065Z,7.53
2022-08-26T01:15:43.421Z,8.55
2022-08-26T01:18:13.776Z,9.38
2022-08-26T01:20:57.725Z,7.82
2022-08-26T01:23:32.385Z,6.60
2022-08-26T01:26:06.270Z,6.57
2022-08-26T01:28:37.322Z,6.28
2022-08-26T01:31:08.955Z,8.15
2022-08-26T01:33:45.182Z,11.02
2022-08-26T01:36:15.106Z,6.35
2022-08-26T01:38:46.074Z,11.10
2022-08-26T01:41:19.898Z,9.20
2022-08-26T01:43:58.072Z,9.82
2022-08-26T01:46:30.035Z,7.68
2022-08-26T01:49:02.329Z,7.97
2022-08-26T01:51:32.278Z,6.55
2022-08-26T01:54:02.009Z,12.32
2022-08-26T01:56:33.466Z,7.35
2022-08-26T01:59:08.287Z,6.32
2022-08-26T02:01:38.964Z,6.95
2022-08-26T02:04:15.547Z,8.63
2022-08-26T02:06:45.717Z,8.23
2022-08-26T02:09:19.763Z,7.57
2022-08-26T02:11:49.142Z,6.75
2022-08-26T02:14:21.652Z,9.07
2022-08-26T02:16:55.189Z,7.30
2022-08-26T02:19:27.586Z,7.22
2022-08-26T02:21:56.189Z,7.95
2022-08-26T02:24:30.052Z,9.18
2022-08-26T02:26:59.537Z,6.32
2022-08-26T02:29:31.845Z,8.80
2022-08-26T02:32:00.421Z,8.75
2022-08-26T02:34:31.320Z,8.57
2022-08-26T02:37:01.038Z,7.30
2022-08-26T02:39:32.002Z,7.43
2022-08-26T02:42:00.472Z,7.38
2022-08-26T02:44:28.816Z,7.05
2022-08-26T02:46:57.327Z,7.40
2022-08-26T02:49:26.571Z,7.88
2022-08-26T02:51:55.333Z,7.43
2022-08-26T02:54:23.671Z,7.38
2022-08-26T02:56:53.228Z,7.78
2022-08-26T02:59:24.507Z,9.80
2022-08-26T03:01:56.001Z,8.98
2022-08-26T03:04:26.059Z,8.52
2022-08-26T03:06:55.456Z,7.38
2022-08-26T03:09:24.308Z,9.18
2022-08-26T03:11:55.274Z,8.20
2022-08-26T03:14:24.396Z,9.15
2022-08-26T03:16:53.923Z,7.82
2022-08-26T03:19:23.525Z,11.63
2022-08-26T03:21:52.919Z,7.57
2022-08-26T03:24:26.746Z,9.13
2022-08-26T03:26:56.522Z,8.63
2022-08-26T03:29:42.506Z,8.25
2022-08-26T03:32:11.671Z,6.97
2022-08-26T03:34:40.005Z,8.02
2022-08-26T03:37:08.333Z,14.50
2022-08-26T03:39:36.917Z,8.70
2022-08-26T03:42:06.956Z,10.52
2022-08-26T03:44:37.073Z,8.00
2022-08-26T03:47:10.365Z,6.78
2022-08-26T03:49:38.820Z,8.05
2022-08-26T03:52:07.865Z,8.48
2022-08-26T03:54:36.057Z,7.78
2022-08-26T03:57:04.503Z,8.80
2022-08-26T03:59:34.933Z,7.80
2022-08-26T04:02:03.310Z,7.40
2022-08-26T04:04:37.861Z,7.00
2022-08-26T04:07:06.075Z,7.57
2022-08-26T04:09:35.280Z,9.55
2022-08-26T04:12:04.606Z,8.13
2022-08-26T04:14:35.581Z,8.30
2022-08-26T04:17:06.530Z,9.93
2022-08-26T04:19:35.922Z,10.07
2022-08-26T04:22:04.105Z,8.45
2022-08-26T04:24:32.808Z,8.88
2022-08-26T04:27:04.620Z,7.50
2022-08-26T04:29:39.106Z,9.88
2022-08-26T04:32:10.850Z,10.95
2022-08-26T04:34:39.350Z,9.05
2022-08-26T04:37:08.510Z,9.85
2022-08-26T04:39:36.796Z,13.73
2022-08-26T04:42:05.989Z,9.80
2022-08-26T04:44:39.715Z,11.20
2022-08-26T04:47:08.074Z,9.00
2022-08-26T04:49:38.233Z,9.65
2022-08-26T04:52:06.675Z,8.80
2022-08-26T04:54:36.035Z,8.55
2022-08-26T04:57:04.422Z,10.45
2022-08-26T04:59:38.463Z,8.45
2022-08-26T05:02:08.905Z,12.68
2022-08-26T05:04:37.422Z,10.98
2022-08-26T05:07:07.803Z,11.80
2022-08-26T05:09:38.569Z,10.82
2022-08-26T05:12:07.406Z,7.82
2022-08-26T05:14:37.549Z,10.43
2022-08-26T05:17:05.921Z,8.85
2022-08-26T05:19:37.028Z,9.38
2022-08-26T05:22:07.233Z,11.50
2022-08-26T05:24:36.289Z,9.98
2022-08-26T05:27:04.614Z,8.40
2022-08-26T05:29:39.949Z,10.82
2022-08-26T05:32:08.585Z,10.73
2022-08-26T05:34:42.899Z,10.95
2022-08-26T05:37:11.380Z,10.77
2022-08-26T05:39:43.503Z,8.52
2022-08-26T05:42:19.849Z,9.82
2022-08-26T05:44:54.066Z,12.13
2022-08-26T05:47:24.650Z,9.02
2022-08-26T05:49:56.710Z,10.35
2022-08-26T05:52:26.012Z,8.80
2022-08-26T05:54:55.067Z,8.93
2022-08-26T05:57:23.337Z,9.80
2022-08-26T05:59:52.708Z,9.23
2022-08-26T06:02:21.087Z,8.23
2022-08-26T06:04:49.451Z,13.68
2022-08-26T06:07:39.141Z,13.02
2022-08-26T06:10:30.999Z,11.32
2022-08-26T06:12:59.057Z,13.80
2022-08-26T06:15:27.534Z,10.32
2022-08-26T06:17:55.890Z,8.82
2022-08-26T06:20:24.207Z,8.98
2022-08-26T06:23:13.091Z,9.25
2022-08-26T06:25:41.938Z,9.73
2022-08-26T06:28:11.798Z,15.02
2022-08-26T06:30:43.523Z,17.52
2022-08-26T06:33:13.360Z,9.98
2022-08-26T06:35:43.259Z,10.75
2022-08-26T06:38:14.058Z,12.43
2022-08-26T06:40:43.369Z,13.63
2022-08-26T06:43:13.059Z,9.85
2022-08-26T06:45:41.706Z,10.02
2022-08-26T06:48:09.990Z,12.13
2022-08-26T06:50:38.291Z,14.00
2022-08-26T06:53:07.744Z,11.05
2022-08-26T06:55:42.130Z,8.95
2022-08-26T06:58:11.114Z,11.43
2022-08-26T07:00:40.552Z,10.80
2022-08-26T07:03:18.522Z,13.27
2022-08-26T07:05:46.906Z,10.90
2022-08-26T07:08:17.778Z,9.90
2022-08-26T07:10:48.114Z,10.30
2022-08-26T07:13:16.382Z,9.95
2022-08-26T07:16:02.932Z,9.32
2022-08-26T07:18:32.521Z,9.60
2022-08-26T07:21:03.126Z,12.35
2022-08-26T07:23:32.648Z,8.50
2022-08-26T07:26:07.865Z,10.07
2022-08-26T07:28:36.405Z,9.32
2022-08-26T07:31:06.122Z,11.77
2022-08-26T07:33:39.352Z,10.25
2022-08-26T07:36:11.017Z,9.68
2022-08-26T07:38:40.962Z,8.38
2022-08-26T07:41:13.164Z,10.73
2022-08-26T07:43:41.961Z,8.30
2022-08-26T07:46:15.881Z,11.93
2022-08-26T07:48:46.101Z,10.48
2022-08-26T07:51:19.300Z,10.95
2022-08-26T07:53:52.801Z,12.77
2022-08-26T07:56:24.053Z,9.65
2022-08-26T07:58:54.676Z,12.93
2022-08-26T08:01:24.546Z,14.32
2022-08-26T08:03:55.512Z,9.02
2022-08-26T08:06:27.165Z,11.55
2022-08-26T08:08:57.122Z,12.40
2022-08-26T08:11:31.141Z,9.73
2022-08-26T08:14:00.805Z,9.23
2022-08-26T08:16:32.407Z,10.45
2022-08-26T08:19:01.735Z,10.77
2022-08-26T08:21:31.998Z,12.35
2022-08-26T08:24:00.540Z,13.57
2022-08-26T08:26:30.494Z,7.35
2022-08-26T08:28:59.182Z,11.38
2022-08-26T08:31:56.193Z,9.18
2022-08-26T08:34:18.069Z,8.15
2022-08-26T08:36:46.773Z,11.10
2022-08-26T08:39:18.238Z,10.52
2022-08-26T08:42:04.172Z,9.38
2022-08-26T08:44:33.807Z,7.75
2022-08-26T08:47:06.869Z,11.93
2022-08-26T08:49:35.994Z,8.60
2022-08-26T08:52:11.408Z,10.68
2022-08-26T08:54:39.945Z,9.27
2022-08-26T08:57:17.049Z,13.52
2022-08-26T08:59:54.616Z,8.45
2022-08-26T09:02:28.872Z,10.07
2022-08-26T09:05:07.784Z,10.10
2022-08-26T09:07:40.124Z,15.98
2022-08-26T09:10:27.582Z,11.55
2022-08-26T09:12:57.771Z,14.88
2022-08-26T09:15:30.677Z,12.43
2022-08-26T09:18:10.911Z,9.93
2022-08-26T09:20:53.187Z,10.90
2022-08-26T09:23:22.085Z,12.48
2022-08-26T09:25:52.514Z,12.85
2022-08-26T09:28:25.318Z,12.18
2022-08-26T09:31:08.012Z,16.17
2022-08-26T09:33:39.325Z,10.77
2022-08-26T09:36:16.981Z,12.23
2022-08-26T09:38:46.053Z,11.70
2022-08-26T09:41:25.026Z,13.73
2022-08-26T09:44:14.629Z,10.15
2022-08-26T09:46:47.838Z,13.90
2022-08-26T09:49:29.856Z,11.65
2022-08-26T09:52:12.494Z,13.13
2022-08-26T09:54:44.350Z,13.25
2022-08-26T09:57:20.590Z,13.88
2022-08-26T09:59:51.555Z,11.13
2022-08-26T10:02:38.183Z,13.20
2022-08-26T10:05:11.028Z,14.48
2022-08-26T10:07:44.027Z,11.70
2022-08-26T10:10:18.796Z,11.43
2022-08-26T10:13:00.317Z,10.80
2022-08-26T10:15:37.191Z,17.10
2022-08-26T10:18:14.194Z,11.35
2022-08-26T10:20:50.743Z,14.60
2022-08-26T10:23:24.573Z,13.63
2022-08-26T10:25:59.231Z,12.98
2022-08-26T10:28:35.435Z,12.95
2022-08-26T10:31:14.769Z,14.98
2022-08-26T10:33:44.590Z,16.35
2022-08-26T10:36:36.449Z,15.45
2022-08-26T10:39:20.563Z,16.05
2022-08-26T10:41:52.470Z,15.30
2022-08-26T10:44:22.398Z,14.50
2022-08-26T10:46:57.838Z,10.02
2022-08-26T10:49:26.133Z,12.10
2022-08-26T10:52:04.379Z,11.10
2022-08-26T10:54:46.990Z,8.65
2022-08-26T10:57:23.442Z,10.40
2022-08-26T11:00:00.666Z,11.93
2022-08-26T11:02:38.095Z,11.55
2022-08-26T11:05:15.849Z,11.30
2022-08-26T11:07:46.822Z,12.30
2022-08-26T11:10:54.863Z,17.65
2022-08-26T11:13:56.857Z,12.40
2022-08-26T11:16:35.392Z,14.02
2022-08-26T11:19:06.491Z,16.40
2022-08-26T11:21:52.013Z,12.43
2022-08-26T11:24:43.314Z,14.82
2022-08-26T11:27:36.744Z,11.15
2022-08-26T11:30:08.346Z,12.27
2022-08-26T11:32:50.437Z,11.98
2022-08-26T11:35:50.076Z,12.13
2022-08-26T11:38:28.153Z,11.25
2022-08-26T11:41:12.624Z,11.27
2022-08-26T11:43:42.558Z,11.02
2022-08-26T11:46:13.533Z,14.13
2022-08-26T11:48:44.158Z,8.68
2022-08-26T11:51:22.859Z,13.70
2022-08-26T11:53:52.029Z,12.13
2022-08-26T11:56:27.115Z,17.38
2022-08-26T11:59:03.803Z,9.15
2022-08-26T12:01:35.649Z,11.25
2022-08-26T12:04:06.414Z,11.55
2022-08-26T12:06:45.091Z,10.35
2022-08-26T12:09:21.342Z,9.70
2022-08-26T12:11:49.859Z,9.52
2022-08-26T12:14:21.270Z,14.63
2022-08-26T12:16:49.736Z,11.80
2022-08-26T12:19:26.394Z,12.13
2022-08-26T12:22:03.288Z,9.95
2022-08-26T12:24:31.729Z,9.95
2022-08-26T12:27:18.012Z,15.10
2022-08-26T12:29:48.460Z,8.15
2022-08-26T12:32:19.327Z,12.73
2022-08-26T12:34:49.986Z,12.15
2022-08-26T12:37:19.608Z,14.82
2022-08-26T12:39:49.313Z,12.63
2022-08-26T12:42:40.316Z,9.20
2022-08-26T12:45:09.831Z,9.40
2022-08-26T12:47:42.599Z,13.00
2022-08-26T12:50:18.871Z,11.43
2022-08-26T12:53:01.258Z,16.88
2022-08-26T12:55:40.195Z,12.15
2022-08-26T12:58:23.582Z,13.43
2022-08-26T13:00:53.202Z,10.75
2022-08-26T13:03:44.466Z,13.88
2022-08-26T13:06:16.575Z,11.48
2022-08-26T13:08:51.558Z,12.60
2022-08-26T13:11:21.726Z,14.60
2022-08-26T13:13:51.576Z,10.77
2022-08-26T13:16:20.256Z,16.10
2022-08-26T13:18:49.066Z,15.70
2022-08-26T13:21:19.959Z,15.50
2022-08-26T13:23:50.131Z,12.50
2022-08-26T13:26:19.482Z,10.32
2022-08-26T13:29:01.115Z,13.00
2022-08-26T13:31:34.426Z,10.57
2022-08-26T13:34:03.614Z,10.80
2022-08-26T13:36:32.328Z,12.80
2022-08-26T13:39:01.976Z,11.73
2022-08-26T13:41:31.974Z,12.57
2022-08-26T13:44:00.522Z,13.75
2022-08-26T13:46:29.490Z,12.77
2022-08-26T13:48:58.439Z,8.80
2022-08-26T13:51:27.686Z,13.85
2022-08-26T13:53:55.989Z,11.10
2022-08-26T13:56:27.349Z,11.73
2022-08-26T13:58:56.310Z,12.80
2022-08-26T14:01:25.040Z,10.30
2022-08-26T14:03:54.146Z,11.48
2022-08-26T14:06:22.837Z,8.20
2022-08-26T14:08:51.685Z,7.75
2022-08-26T14:11:20.456Z,8.15
2022-08-26T14:13:50.168Z,9.25
2022-08-26T14:16:26.768Z,12.10
2022-08-26T14:18:55.307Z,18.73
2022-08-26T14:21:24.741Z,14.63
2022-08-26T14:23:55.914Z,16.45
2022-08-26T14:26:28.587Z,18.20
2022-08-26T14:28:59.819Z,18.88
2022-08-26T14:31:30.016Z,16.20
2022-08-26T14:34:00.829Z,22.77
2022-08-26T14:36:29.254Z,18.48
2022-08-26T14:39:00.764Z,14.02
2022-08-26T14:41:30.169Z,13.88
2022-08-26T14:44:05.236Z,15.88
2022-08-26T14:46:39.391Z,11.75
2022-08-26T14:49:10.682Z,13.50
2022-08-26T14:51:39.162Z,16.75
2022-08-26T14:54:12.753Z,11.10
2022-08-26T14:56:44.905Z,14.25
2022-08-26T14:59:22.032Z,12.63
2022-08-26T15:01:50.859Z,9.38
2022-08-26T15:04:20.034Z,15.15
2022-08-26T15:06:48.831Z,13.52
2022-08-26T15:09:17.690Z,10.68
2022-08-26T15:11:47.674Z,8.25
2022-08-26T15:14:19.364Z,12.40
2022-08-26T15:16:48.801Z,11.68
2022-08-26T15:19:17.869Z,18.23
2022-08-26T15:21:47.157Z,13.05
2022-08-26T15:24:16.824Z,11.70
2022-08-26T15:26:46.554Z,16.38
2022-08-26T15:29:14.980Z,12.73
2022-08-26T15:31:44.950Z,15.23
2022-08-26T15:34:16.792Z,13.52
2022-08-26T15:36:46.678Z,13.13
2022-08-26T15:39:16.611Z,15.02
2022-08-26T15:41:45.088Z,17.77
2022-08-26T15:44:16.090Z,13.13
2022-08-26T15:46:45.791Z,17.08
2022-08-26T15:49:17.561Z,21.60
2022-08-26T15:51:50.126Z,20.33
2022-08-26T15:54:21.010Z,16.20
2022-08-26T15:56:51.992Z,16.58
2022-08-26T15:59:22.517Z,15.50
2022-08-26T16:01:53.141Z,19.63
2022-08-26T16:04:21.690Z,16.33
2022-08-26T16:06:51.994Z,17.55
2022-08-26T16:09:27.034Z,16.23
2022-08-26T16:11:56.262Z,14.70
2022-08-26T16:14:25.229Z,20.92
2022-08-26T16:16:54.862Z,13.70
2022-08-26T16:19:23.824Z,15.07
2022-08-26T16:21:52.180Z,16.92
2022-08-26T16:24:24.852Z,12.65
2022-08-26T16:26:55.710Z,14.70
2022-08-26T16:29:24.444Z,15.25
2022-08-26T16:31:54.666Z,14.98
2022-08-26T16:34:23.299Z,13.70
2022-08-26T16:36:52.987Z,12.80
2022-08-26T16:39:21.249Z,15.43
2022-08-26T16:41:49.408Z,13.80
2022-08-26T16:44:17.703Z,11.13
2022-08-26T16:46:46.526Z,13.18
2022-08-26T16:49:16.205Z,10.10
2022-08-26T16:51:44.854Z,12.57
2022-08-26T16:54:13.093Z,10.90
2022-08-26T16:56:41.347Z,11.27
2022-08-26T16:59:11.634Z,12.55
2022-08-26T17:01:40.052Z,13.98
2022-08-26T17:04:08.233Z,13.02
2022-08-26T17:06:38.206Z,12.07
2022-08-26T17:09:06.661Z,17.85
2022-08-26T17:11:35.289Z,14.77
2022-08-26T17:14:03.613Z,13.27
2022-08-26T17:16:32.253Z,16.80
2022-08-26T17:19:01.164Z,17.80
2022-08-26T17:21:29.627Z,13.43
2022-08-26T17:23:59.249Z,18.55
2022-08-26T17:26:27.943Z,17.75
2022-08-26T17:28:56.648Z,18.45
2022-08-26T17:31:25.092Z,17.08
2022-08-26T17:33:55.404Z,16.75
2022-08-26T17:36:27.813Z,20.50
2022-08-26T17:38:58.774Z,18.77
2022-08-26T17:41:27.759Z,16.65
2022-08-26T17:43:57.049Z,20.55
2022-08-26T17:46:26.379Z,19.40
2022-08-26T17:48:54.633Z,23.88
2022-08-26T17:51:23.749Z,20.15
2022-08-26T17:53:53.182Z,22.58
2022-08-26T17:56:25.396Z,21.23
2022-08-26T17:58:56.916Z,22.77
2022-08-26T18:01:27.395Z,20.85
2022-08-26T18:04:00.416Z,23.38
2022-08-26T18:06:30.491Z,19.77
2022-08-26T18:08:59.382Z,24.67
2022-08-26T18:11:29.490Z,20.80
2022-08-26T18:13:57.681Z,19.85
2022-08-26T18:16:25.939Z,24.08
2022-08-26T18:18:54.567Z,21.70
2022-08-26T18:21:24.778Z,22.45
2022-08-26T18:23:54.258Z,22.98
2022-08-26T18:26:26.795Z,26.15
2022-08-26T18:28:56.698Z,23.27
2022-08-26T18:31:25.426Z,21.73
2022-08-26T18:33:54.309Z,22.08
2022-08-26T18:36:25.035Z,20.40
2022-08-26T18:38:54.208Z,21.23
2022-08-26T18:41:24.657Z,19.98
2022-08-26T18:43:54.214Z,25.02
2022-08-26T18:46:26.109Z,20.55
2022-08-26T18:48:55.215Z,24.85
2022-08-26T18:51:27.805Z,21.77
2022-08-26T18:53:56.370Z,21.42
2022-08-26T18:56:25.665Z,22.35
2022-08-26T18:58:54.046Z,19.67
2022-08-26T19:01:27.427Z,20.90
2022-08-26T19:03:56.432Z,20.98
2022-08-26T19:06:25.662Z,18.77
2022-08-26T19:08:54.690Z,20.73
2022-08-26T19:11:32.442Z,19.88
2022-08-26T19:14:08.091Z,20.30
2022-08-26T19:16:38.598Z,21.25
2022-08-26T19:19:07.444Z,21.85
2022-08-26T19:21:37.521Z,17.88
2022-08-26T19:24:09.223Z,17.50
2022-08-26T19:26:38.882Z,21.08
2022-08-26T19:29:07.218Z,17.13
2022-08-26T19:31:36.893Z,20.05
2022-08-26T19:34:05.459Z,21.10
2022-08-26T19:36:34.166Z,17.30
2022-08-26T19:39:05.091Z,16.85
2022-08-26T19:41:38.367Z,21.58
2022-08-26T19:44:09.348Z,20.45
2022-08-26T19:49:12.191Z,18.48
2022-08-26T19:51:40.413Z,20.40
2022-08-26T19:54:08.650Z,21.20
2022-08-26T19:56:36.934Z,22.05
2022-08-26T19:59:05.241Z,20.63
2022-08-26T20:01:36.254Z,19.05
2022-08-26T20:04:06.126Z,17.17
2022-08-26T20:06:34.351Z,20.35
2022-08-26T20:09:02.560Z,19.05
2022-08-26T20:11:31.075Z,17.33
2022-08-26T20:13:59.967Z,19.15
2022-08-26T20:16:28.178Z,17.17
2022-08-26T20:19:13.902Z,17.50
2022-08-26T20:21:43.900Z,16.52
2022-08-26T20:24:14.432Z,15.23
2022-08-26T20:26:44.848Z,16.67
2022-08-26T20:29:14.899Z,18.73
2022-08-26T20:31:44.041Z,16.95
2022-08-26T20:34:13.250Z,16.80
2022-08-26T20:36:43.776Z,22.67
2022-08-26T20:39:12.118Z,18.23
2022-08-26T20:41:41.179Z,16.42
2022-08-26T20:44:10.464Z,18.50
2022-08-26T20:46:38.843Z,19.20
2022-08-26T20:49:07.630Z,19.05
2022-08-26T20:51:37.238Z,18.15
2022-08-26T20:54:07.626Z,17.30
2022-08-26T20:56:36.803Z,18.05
2022-08-26T20:59:08.340Z,15.90
2022-08-26T21:01:42.102Z,16.85
2022-08-26T21:04:14.190Z,20.60
2022-08-26T21:06:48.999Z,13.73
2022-08-26T21:09:24.512Z,21.00
2022-08-26T21:11:55.157Z,16.23
2022-08-26T21:14:25.874Z,18.38
2022-08-26T21:16:54.921Z,16.98
2022-08-26T21:19:23.655Z,17.48
2022-08-26T21:21:52.029Z,14.88
2022-08-26T21:24:21.772Z,15.05
2022-08-26T21:26:50.146Z,14.70
2022-08-26T21:29:18.423Z,16.70
2022-08-26T21:31:47.056Z,13.40
2022-08-26T21:34:17.020Z,13.43
2022-08-26T21:36:45.640Z,14.90
2022-08-26T21:39:14.674Z,15.68
2022-08-26T21:41:45.489Z,15.55
2022-08-26T21:44:15.050Z,13.18
2022-08-26T21:46:44.918Z,14.30
2022-08-26T21:49:15.635Z,16.33
2022-08-26T21:51:46.663Z,39.92
2022-08-26T21:54:15.647Z,15.23
2022-08-26T21:56:47.148Z,13.77
2022-08-26T21:59:20.044Z,15.02
2022-08-26T22:01:51.163Z,15.93
2022-08-26T22:04:19.644Z,15.93
2022-08-26T22:06:55.694Z,12.75
2022-08-26T22:09:26.294Z,14.43
2022-08-26T22:11:57.483Z,15.65
2022-08-26T22:14:30.759Z,14.15
2022-08-26T22:17:00.491Z,14.52
2022-08-26T22:19:29.805Z,15.07
2022-08-26T22:21:58.336Z,13.23
2022-08-26T22:24:27.776Z,13.93
2022-08-26T22:26:57.450Z,12.95
2022-08-26T22:29:25.657Z,12.10
2022-08-26T22:31:54.134Z,14.30
2022-08-26T22:34:23.217Z,14.88
2022-08-26T22:36:51.909Z,11.70
2022-08-26T22:39:22.568Z,14.07
2022-08-26T22:41:51.852Z,13.88
2022-08-26T22:44:23.118Z,14.88
2022-08-26T22:46:54.188Z,11.88
2022-08-26T22:49:22.645Z,15.40
2022-08-26T22:51:51.586Z,13.00
2022-08-26T22:54:19.969Z,14.35
2022-08-26T22:56:48.871Z,18.30
2022-08-26T22:59:17.890Z,12.63
2022-08-26T23:01:47.578Z,14.50
2022-08-26T23:04:16.483Z,16.15
2022-08-26T23:06:47.636Z,15.18
2022-08-26T23:09:17.945Z,14.48
2022-08-26T23:11:47.354Z,13.48
2022-08-26T23:14:16.324Z,11.23
2022-08-26T23:16:44.954Z,13.82
2022-08-26T23:19:16.584Z,16.33
2022-08-26T23:21:45.010Z,10.75
2022-08-26T23:24:13.829Z,14.35
2022-08-26T23:26:43.240Z,12.75
2022-08-26T23:29:13.583Z,13.55
2022-08-26T23:31:43.082Z,13.40
2022-08-26T23:34:29.383Z,12.90
2022-08-26T23:37:01.014Z,11.45
2022-08-26T23:39:29.911Z,13.65
2022-08-26T23:41:58.403Z,15.50
2022-08-26T23:44:26.892Z,10.95
2022-08-26T23:46:55.772Z,12.75
2022-08-26T23:49:24.526Z,12.05
2022-08-26T23:52:10.419Z,11.13
2022-08-26T23:54:40.875Z,12.80
2022-08-26T23:57:09.897Z,13.50
2022-08-26T23:59:39.086Z,11.18
